sensor_id;sensor_type;location;lat;lon;timestamp;P1;durP1;ratioP1;P2;durP2;ratioP2
56746;SDS011;42623;49.978;9.966;2024-03-17T00:00:03;10.33;;;6.97;;
56746;SDS011;42623;49.978;9.966;2024-03-17T00:00:15;10.43;;;6.95;;
56746;SDS011;42623;49.978;9.966;2024-03-17T00:00:28;10.70;;;6.95;;
56746;SDS011;42623;49.978;9.966;2024-03-17T00:00:38;11.18;;;7.28;;
56746;SDS011;42623;49.978;9.966;2024-03-17T00:00:50;11.13;;;6.88;;
56746;SDS011;42623;49.978;9.966;2024-03-17T00:01:03;10.97;;;6.50;;
56746;SDS011;42623;49.978;9.966;2024-03-17T00:01:14;11.10;;;6.15;;
56746;SDS011;42623;49.978;9.966;2024-03-17T00:01:24;11.13;;;6.43;;
56746;SDS011;42623;49.978;9.966;2024-03-17T00:01:34;11.53;;;7.13;;
56746;SDS011;42623;49.978;9.966;2024-03-17T00:01:44;11.53;;;7.43;;
56746;SDS011;42623;49.978;9.966;2024-03-17T00:01:54;10.87;;;7.03;;
56746;SDS011;42623;49.978;9.966;2024-03-17T00:02:04;11.02;;;7.13;;
56746;SDS011;42623;49.978;9.966;2024-03-17T00:02:14;10.60;;;6.63;;
56746;SDS011;42623;49.978;9.966;2024-03-17T00:02:25;11.37;;;6.67;;
56746;SDS011;42623;49.978;9.966;2024-03-17T00:02:35;11.68;;;6.25;;
56746;SDS011;42623;49.978;9.966;2024-03-17T00:02:45;10.93;;;5.87;;
56746;SDS011;42623;49.978;9.966;2024-03-17T00:02:56;9.85;;;5.53;;
56746;SDS011;42623;49.978;9.966;2024-03-17T00:03:06;9.23;;;5.47;;
56746;SDS011;42623;49.978;9.966;2024-03-17T00:03:19;9.30;;;5.63;;
56746;SDS011;42623;49.978;9.966;2024-03-17T00:03:30;9.27;;;5.73;;
56746;SDS011;42623;49.978;9.966;2024-03-17T00:03:40;9.02;;;5.55;;
56746;SDS011;42623;49.978;9.966;2024-03-17T00:03:50;8.87;;;5.60;;
56746;SDS011;42623;49.978;9.966;2024-03-17T00:04:01;8.55;;;5.20;;
56746;SDS011;42623;49.978;9.966;2024-03-17T00:04:12;8.90;;;5.28;;
56746;SDS011;42623;49.978;9.966;2024-03-17T00:04:22;9.23;;;5.37;;
56746;SDS011;42623;49.978;9.966;2024-03-17T00:04:32;9.75;;;5.47;;
56746;SDS011;42623;49.978;9.966;2024-03-17T00:04:42;9.57;;;5.23;;
56746;SDS011;42623;49.978;9.966;2024-03-17T00:04:53;9.03;;;4.80;;
56746;SDS011;42623;49.978;9.966;2024-03-17T00:05:03;8.30;;;4.30;;
56746;SDS011;42623;49.978;9.966;2024-03-17T00:05:14;8.05;;;4.30;;
56746;SDS011;42623;49.978;9.966;2024-03-17T00:05:24;7.82;;;4.38;;
56746;SDS011;42623;49.978;9.966;2024-03-17T00:05:37;8.27;;;4.50;;
56746;SDS011;42623;49.978;9.966;2024-03-17T00:05:47;8.63;;;4.57;;
56746;SDS011;42623;49.978;9.966;2024-03-17T00:05:58;9.47;;;4.57;;
56746;SDS011;42623;49.978;9.966;2024-03-17T00:06:08;8.70;;;4.43;;
56746;SDS011;42623;49.978;9.966;2024-03-17T00:06:19;8.68;;;4.45;;
56746;SDS011;42623;49.978;9.966;2024-03-17T00:06:29;8.30;;;4.23;;
56746;SDS011;42623;49.978;9.966;2024-03-17T00:06:39;8.23;;;3.83;;
56746;SDS011;42623;49.978;9.966;2024-03-17T00:06:50;6.90;;;3.53;;
56746;SDS011;42623;49.978;9.966;2024-03-17T00:07:00;6.90;;;3.73;;
56746;SDS011;42623;49.978;9.966;2024-03-17T00:07:11;6.63;;;4.27;;
56746;SDS011;42623;49.978;9.966;2024-03-17T00:07:21;7.78;;;4.18;;
56746;SDS011;42623;49.978;9.966;2024-03-17T00:07:31;7.40;;;3.80;;
56746;SDS011;42623;49.978;9.966;2024-03-17T00:07:41;8.00;;;3.47;;
56746;SDS011;42623;49.978;9.966;2024-03-17T00:07:51;7.30;;;3.42;;
56746;SDS011;42623;49.978;9.966;2024-03-17T00:08:03;7.30;;;3.63;;
56746;SDS011;42623;49.978;9.966;2024-03-17T00:08:14;7.00;;;3.55;;
56746;SDS011;42623;49.978;9.966;2024-03-17T00:08:25;7.77;;;3.93;;
56746;SDS011;42623;49.978;9.966;2024-03-17T00:08:35;7.43;;;3.73;;
56746;SDS011;42623;49.978;9.966;2024-03-17T00:08:45;7.40;;;3.78;;
56746;SDS011;42623;49.978;9.966;2024-03-17T00:08:55;7.03;;;3.50;;
56746;SDS011;42623;49.978;9.966;2024-03-17T00:09:05;6.57;;;3.23;;
56746;SDS011;42623;49.978;9.966;2024-03-17T00:09:19;7.53;;;3.67;;
56746;SDS011;42623;49.978;9.966;2024-03-17T00:09:30;8.30;;;3.92;;
56746;SDS011;42623;49.978;9.966;2024-03-17T00:09:40;8.90;;;3.83;;
56746;SDS011;42623;49.978;9.966;2024-03-17T00:09:51;8.45;;;3.30;;
56746;SDS011;42623;49.978;9.966;2024-03-17T00:10:01;7.90;;;3.20;;
56746;SDS011;42623;49.978;9.966;2024-03-17T00:10:11;6.47;;;3.03;;
56746;SDS011;42623;49.978;9.966;2024-03-17T00:10:21;7.07;;;3.47;;
56746;SDS011;42623;49.978;9.966;2024-03-17T00:10:31;6.40;;;3.10;;
56746;SDS011;42623;49.978;9.966;2024-03-17T00:10:42;6.53;;;3.20;;
56746;SDS011;42623;49.978;9.966;2024-03-17T00:10:52;6.63;;;3.07;;
56746;SDS011;42623;49.978;9.966;2024-03-17T00:11:02;8.20;;;4.00;;
56746;SDS011;42623;49.978;9.966;2024-03-17T00:11:13;8.03;;;3.70;;
56746;SDS011;42623;49.978;9.966;2024-03-17T00:11:23;7.73;;;3.87;;
56746;SDS011;42623;49.978;9.966;2024-03-17T00:11:33;6.53;;;3.37;;
56746;SDS011;42623;49.978;9.966;2024-03-17T00:11:45;5.93;;;3.30;;
56746;SDS011;42623;49.978;9.966;2024-03-17T00:11:55;5.65;;;2.88;;
56746;SDS011;42623;49.978;9.966;2024-03-17T00:12:05;5.80;;;2.60;;
56746;SDS011;42623;49.978;9.966;2024-03-17T00:12:16;6.80;;;2.90;;
56746;SDS011;42623;49.978;9.966;2024-03-17T00:12:26;7.35;;;3.22;;
56746;SDS011;42623;49.978;9.966;2024-03-17T00:12:36;7.43;;;3.47;;
56746;SDS011;42623;49.978;9.966;2024-03-17T00:12:46;7.63;;;3.87;;
56746;SDS011;42623;49.978;9.966;2024-03-17T00:12:57;6.82;;;3.65;;
56746;SDS011;42623;49.978;9.966;2024-03-17T00:13:07;6.40;;;3.30;;
56746;SDS011;42623;49.978;9.966;2024-03-17T00:13:18;6.68;;;3.25;;
56746;SDS011;42623;49.978;9.966;2024-03-17T00:13:28;7.50;;;3.47;;
56746;SDS011;42623;49.978;9.966;2024-03-17T00:13:38;7.27;;;3.33;;
56746;SDS011;42623;49.978;9.966;2024-03-17T00:13:48;7.83;;;3.53;;
56746;SDS011;42623;49.978;9.966;2024-03-17T00:13:58;7.55;;;3.33;;
56746;SDS011;42623;49.978;9.966;2024-03-17T00:14:08;8.13;;;3.70;;
56746;SDS011;42623;49.978;9.966;2024-03-17T00:14:19;6.80;;;3.30;;
56746;SDS011;42623;49.978;9.966;2024-03-17T00:14:29;6.70;;;3.72;;
56746;SDS011;42623;49.978;9.966;2024-03-17T00:14:39;7.03;;;3.67;;
56746;SDS011;42623;49.978;9.966;2024-03-17T00:14:49;8.23;;;4.10;;
56746;SDS011;42623;49.978;9.966;2024-03-17T00:15:00;8.33;;;4.03;;
56746;SDS011;42623;49.978;9.966;2024-03-17T00:15:10;8.03;;;4.10;;
56746;SDS011;42623;49.978;9.966;2024-03-17T00:15:20;6.83;;;3.57;;
56746;SDS011;42623;49.978;9.966;2024-03-17T00:15:30;6.67;;;3.37;;
56746;SDS011;42623;49.978;9.966;2024-03-17T00:15:40;6.47;;;3.07;;
56746;SDS011;42623;49.978;9.966;2024-03-17T00:15:51;7.78;;;3.70;;
56746;SDS011;42623;49.978;9.966;2024-03-17T00:16:01;8.60;;;3.80;;
56746;SDS011;42623;49.978;9.966;2024-03-17T00:16:11;9.50;;;3.87;;
56746;SDS011;42623;49.978;9.966;2024-03-17T00:16:23;9.30;;;4.00;;
56746;SDS011;42623;49.978;9.966;2024-03-17T00:16:33;8.27;;;3.90;;
56746;SDS011;42623;49.978;9.966;2024-03-17T00:16:43;6.90;;;3.73;;
56746;SDS011;42623;49.978;9.966;2024-03-17T00:16:54;6.40;;;3.42;;
56746;SDS011;42623;49.978;9.966;2024-03-17T00:17:04;6.57;;;3.45;;
56746;SDS011;42623;49.978;9.966;2024-03-17T00:17:14;6.37;;;3.40;;
56746;SDS011;42623;49.978;9.966;2024-03-17T00:17:25;6.88;;;3.38;;
56746;SDS011;42623;49.978;9.966;2024-03-17T00:17:35;6.43;;;3.30;;
56746;SDS011;42623;49.978;9.966;2024-03-17T00:17:46;6.93;;;3.50;;
56746;SDS011;42623;49.978;9.966;2024-03-17T00:17:56;6.97;;;3.97;;
56746;SDS011;42623;49.978;9.966;2024-03-17T00:18:06;7.10;;;3.87;;
56746;SDS011;42623;49.978;9.966;2024-03-17T00:18:16;7.32;;;4.43;;
56746;SDS011;42623;49.978;9.966;2024-03-17T00:18:26;7.57;;;4.47;;
56746;SDS011;42623;49.978;9.966;2024-03-17T00:18:38;7.68;;;4.60;;
56746;SDS011;42623;49.978;9.966;2024-03-17T00:18:48;7.77;;;4.60;;
56746;SDS011;42623;49.978;9.966;2024-03-17T00:18:58;7.23;;;4.13;;
56746;SDS011;42623;49.978;9.966;2024-03-17T00:19:08;6.80;;;3.93;;
56746;SDS011;42623;49.978;9.966;2024-03-17T00:19:18;6.78;;;3.55;;
56746;SDS011;42623;49.978;9.966;2024-03-17T00:19:29;7.57;;;3.90;;
56746;SDS011;42623;49.978;9.966;2024-03-17T00:19:39;8.50;;;4.10;;
56746;SDS011;42623;49.978;9.966;2024-03-17T00:19:49;8.80;;;4.30;;
56746;SDS011;42623;49.978;9.966;2024-03-17T00:19:59;8.33;;;4.07;;
56746;SDS011;42623;49.978;9.966;2024-03-17T00:20:11;8.15;;;4.15;;
56746;SDS011;42623;49.978;9.966;2024-03-17T00:20:28;8.32;;;4.25;;
56746;SDS011;42623;49.978;9.966;2024-03-17T00:20:40;9.23;;;4.63;;
56746;SDS011;42623;49.978;9.966;2024-03-17T00:20:50;7.87;;;4.37;;
56746;SDS011;42623;49.978;9.966;2024-03-17T00:21:01;7.47;;;4.00;;
56746;SDS011;42623;49.978;9.966;2024-03-17T00:21:12;6.35;;;3.40;;
56746;SDS011;42623;49.978;9.966;2024-03-17T00:21:22;7.03;;;3.47;;
56746;SDS011;42623;49.978;9.966;2024-03-17T00:21:32;9.73;;;5.00;;
56746;SDS011;42623;49.978;9.966;2024-03-17T00:21:43;10.57;;;5.23;;
56746;SDS011;42623;49.978;9.966;2024-03-17T00:21:54;10.18;;;5.20;;
56746;SDS011;42623;49.978;9.966;2024-03-17T00:22:04;8.00;;;4.18;;
56746;SDS011;42623;49.978;9.966;2024-03-17T00:22:14;11.03;;;7.37;;
56746;SDS011;42623;49.978;9.966;2024-03-17T00:22:24;20.87;;;14.00;;
56746;SDS011;42623;49.978;9.966;2024-03-17T00:22:35;38.47;;;24.83;;
56746;SDS011;42623;49.978;9.966;2024-03-17T00:22:49;37.10;;;23.20;;
56746;SDS011;42623;49.978;9.966;2024-03-17T00:23:01;34.50;;;22.25;;
56746;SDS011;42623;49.978;9.966;2024-03-17T00:23:11;110.47;;;75.13;;
56746;SDS011;42623;49.978;9.966;2024-03-17T00:23:21;134.80;;;89.07;;
56746;SDS011;42623;49.978;9.966;2024-03-17T00:23:32;157.83;;;100.67;;
56746;SDS011;42623;49.978;9.966;2024-03-17T00:23:42;103.13;;;64.63;;
56746;SDS011;42623;49.978;9.966;2024-03-17T00:23:52;84.47;;;54.67;;
56746;SDS011;42623;49.978;9.966;2024-03-17T00:24:02;48.33;;;32.13;;
56746;SDS011;42623;49.978;9.966;2024-03-17T00:24:13;23.50;;;16.10;;
56746;SDS011;42623;49.978;9.966;2024-03-17T00:24:23;14.43;;;10.13;;
56746;SDS011;42623;49.978;9.966;2024-03-17T00:24:34;10.37;;;6.57;;
56746;SDS011;42623;49.978;9.966;2024-03-17T00:24:44;10.05;;;5.20;;
56746;SDS011;42623;49.978;9.966;2024-03-17T00:24:55;9.70;;;4.38;;
56746;SDS011;42623;49.978;9.966;2024-03-17T00:25:06;8.77;;;3.53;;
56746;SDS011;42623;49.978;9.966;2024-03-17T00:25:17;7.45;;;3.00;;
56746;SDS011;42623;49.978;9.966;2024-03-17T00:25:29;6.80;;;3.00;;
56746;SDS011;42623;49.978;9.966;2024-03-17T00:25:39;7.55;;;3.25;;
56746;SDS011;42623;49.978;9.966;2024-03-17T00:25:50;7.17;;;3.13;;
56746;SDS011;42623;49.978;9.966;2024-03-17T00:26:00;7.35;;;3.40;;
56746;SDS011;42623;49.978;9.966;2024-03-17T00:26:11;20.80;;;15.27;;
56746;SDS011;42623;49.978;9.966;2024-03-17T00:26:21;31.27;;;23.40;;
56746;SDS011;42623;49.978;9.966;2024-03-17T00:26:32;33.13;;;24.27;;
56746;SDS011;42623;49.978;9.966;2024-03-17T00:26:44;14.10;;;8.15;;
56746;SDS011;42623;49.978;9.966;2024-03-17T00:26:54;9.32;;;5.85;;
56746;SDS011;42623;49.978;9.966;2024-03-17T00:27:05;8.97;;;5.60;;
56746;SDS011;42623;49.978;9.966;2024-03-17T00:27:15;8.23;;;5.10;;
56746;SDS011;42623;49.978;9.966;2024-03-17T00:27:25;7.25;;;4.03;;
56746;SDS011;42623;49.978;9.966;2024-03-17T00:27:35;7.70;;;4.10;;
56746;SDS011;42623;49.978;9.966;2024-03-17T00:27:49;8.98;;;4.80;;
56746;SDS011;42623;49.978;9.966;2024-03-17T00:28:01;9.98;;;5.47;;
56746;SDS011;42623;49.978;9.966;2024-03-17T00:28:11;8.95;;;5.05;;
56746;SDS011;42623;49.978;9.966;2024-03-17T00:28:22;8.02;;;4.68;;
56746;SDS011;42623;49.978;9.966;2024-03-17T00:28:32;8.03;;;4.73;;
56746;SDS011;42623;49.978;9.966;2024-03-17T00:28:42;7.83;;;4.57;;
56746;SDS011;42623;49.978;9.966;2024-03-17T00:28:56;7.72;;;4.30;;
56746;SDS011;42623;49.978;9.966;2024-03-17T00:29:06;6.83;;;3.87;;
56746;SDS011;42623;49.978;9.966;2024-03-17T00:29:16;7.67;;;3.90;;
56746;SDS011;42623;49.978;9.966;2024-03-17T00:29:26;10.63;;;4.43;;
56746;SDS011;42623;49.978;9.966;2024-03-17T00:29:38;11.13;;;4.93;;
56746;SDS011;42623;49.978;9.966;2024-03-17T00:29:48;10.50;;;4.83;;
56746;SDS011;42623;49.978;9.966;2024-03-17T00:29:58;7.83;;;4.20;;
56746;SDS011;42623;49.978;9.966;2024-03-17T00:30:08;7.43;;;3.75;;
56746;SDS011;42623;49.978;9.966;2024-03-17T00:30:25;8.02;;;4.13;;
56746;SDS011;42623;49.978;9.966;2024-03-17T00:30:35;8.93;;;4.70;;
56746;SDS011;42623;49.978;9.966;2024-03-17T00:30:46;9.20;;;4.60;;
56746;SDS011;42623;49.978;9.966;2024-03-17T00:30:56;9.23;;;4.60;;
56746;SDS011;42623;49.978;9.966;2024-03-17T00:31:07;8.77;;;4.37;;
56746;SDS011;42623;49.978;9.966;2024-03-17T00:31:19;7.97;;;4.32;;
56746;SDS011;42623;49.978;9.966;2024-03-17T00:31:30;7.88;;;4.35;;
56746;SDS011;42623;49.978;9.966;2024-03-17T00:31:41;8.32;;;4.60;;
56746;SDS011;42623;49.978;9.966;2024-03-17T00:31:51;9.00;;;4.60;;
56746;SDS011;42623;49.978;9.966;2024-03-17T00:32:02;8.70;;;4.17;;
56746;SDS011;42623;49.978;9.966;2024-03-17T00:32:12;7.80;;;3.87;;
56746;SDS011;42623;49.978;9.966;2024-03-17T00:32:22;7.50;;;4.00;;
56746;SDS011;42623;49.978;9.966;2024-03-17T00:32:33;7.68;;;4.28;;
56746;SDS011;42623;49.978;9.966;2024-03-17T00:32:43;7.60;;;4.10;;
56746;SDS011;42623;49.978;9.966;2024-03-17T00:32:54;7.07;;;3.73;;
56746;SDS011;42623;49.978;9.966;2024-03-17T00:33:04;6.93;;;3.50;;
56746;SDS011;42623;49.978;9.966;2024-03-17T00:33:14;7.67;;;3.53;;
56746;SDS011;42623;49.978;9.966;2024-03-17T00:33:24;8.32;;;3.75;;
56746;SDS011;42623;49.978;9.966;2024-03-17T00:33:34;8.47;;;3.87;;
56746;SDS011;42623;49.978;9.966;2024-03-17T00:33:44;8.33;;;4.03;;
56746;SDS011;42623;49.978;9.966;2024-03-17T00:33:55;8.10;;;3.93;;
56746;SDS011;42623;49.978;9.966;2024-03-17T00:34:05;7.72;;;4.10;;
56746;SDS011;42623;49.978;9.966;2024-03-17T00:34:15;7.17;;;4.07;;
56746;SDS011;42623;49.978;9.966;2024-03-17T00:34:25;7.23;;;4.07;;
56746;SDS011;42623;49.978;9.966;2024-03-17T00:34:35;7.40;;;4.00;;
56746;SDS011;42623;49.978;9.966;2024-03-17T00:34:45;7.23;;;3.90;;
56746;SDS011;42623;49.978;9.966;2024-03-17T00:34:55;7.00;;;3.75;;
56746;SDS011;42623;49.978;9.966;2024-03-17T00:35:06;7.40;;;3.63;;
56746;SDS011;42623;49.978;9.966;2024-03-17T00:35:16;7.70;;;3.70;;
56746;SDS011;42623;49.978;9.966;2024-03-17T00:35:30;7.66;;;3.80;;
56746;SDS011;42623;49.978;9.966;2024-03-17T00:35:40;7.80;;;3.43;;
56746;SDS011;42623;49.978;9.966;2024-03-17T00:35:51;7.97;;;3.30;;
56746;SDS011;42623;49.978;9.966;2024-03-17T00:36:01;7.23;;;3.27;;
56746;SDS011;42623;49.978;9.966;2024-03-17T00:36:11;7.13;;;3.60;;
56746;SDS011;42623;49.978;9.966;2024-03-17T00:36:21;7.60;;;3.90;;
56746;SDS011;42623;49.978;9.966;2024-03-17T00:36:31;6.83;;;3.60;;
56746;SDS011;42623;49.978;9.966;2024-03-17T00:36:41;6.83;;;3.60;;
56746;SDS011;42623;49.978;9.966;2024-03-17T00:36:51;6.73;;;3.70;;
56746;SDS011;42623;49.978;9.966;2024-03-17T00:37:02;7.70;;;3.90;;
56746;SDS011;42623;49.978;9.966;2024-03-17T00:37:12;8.55;;;4.05;;
56746;SDS011;42623;49.978;9.966;2024-03-17T00:37:23;8.18;;;3.72;;
56746;SDS011;42623;49.978;9.966;2024-03-17T00:37:33;7.93;;;3.80;;
56746;SDS011;42623;49.978;9.966;2024-03-17T00:37:43;6.90;;;3.27;;
56746;SDS011;42623;49.978;9.966;2024-03-17T00:37:54;7.45;;;3.13;;
56746;SDS011;42623;49.978;9.966;2024-03-17T00:38:04;6.50;;;2.73;;
56746;SDS011;42623;49.978;9.966;2024-03-17T00:38:20;5.78;;;2.72;;
56746;SDS011;42623;49.978;9.966;2024-03-17T00:38:30;6.70;;;2.97;;
56746;SDS011;42623;49.978;9.966;2024-03-17T00:38:40;7.83;;;3.53;;
56746;SDS011;42623;49.978;9.966;2024-03-17T00:38:50;8.00;;;3.87;;
56746;SDS011;42623;49.978;9.966;2024-03-17T00:39:02;7.22;;;3.95;;
56746;SDS011;42623;49.978;9.966;2024-03-17T00:39:12;7.83;;;4.47;;
56746;SDS011;42623;49.978;9.966;2024-03-17T00:39:22;7.18;;;4.32;;
56746;SDS011;42623;49.978;9.966;2024-03-17T00:39:32;6.60;;;3.77;;
56746;SDS011;42623;49.978;9.966;2024-03-17T00:39:43;5.55;;;2.95;;
56746;SDS011;42623;49.978;9.966;2024-03-17T00:39:53;6.97;;;3.47;;
56746;SDS011;42623;49.978;9.966;2024-03-17T00:40:04;7.93;;;3.60;;
56746;SDS011;42623;49.978;9.966;2024-03-17T00:40:17;8.82;;;4.13;;
56746;SDS011;42623;49.978;9.966;2024-03-17T00:40:28;8.80;;;4.10;;
56746;SDS011;42623;49.978;9.966;2024-03-17T00:40:38;8.67;;;4.47;;
56746;SDS011;42623;49.978;9.966;2024-03-17T00:40:48;8.27;;;4.30;;
56746;SDS011;42623;49.978;9.966;2024-03-17T00:40:59;7.57;;;3.90;;
56746;SDS011;42623;49.978;9.966;2024-03-17T00:41:09;7.13;;;3.40;;
56746;SDS011;42623;49.978;9.966;2024-03-17T00:41:19;7.57;;;3.67;;
56746;SDS011;42623;49.978;9.966;2024-03-17T00:41:29;7.78;;;3.88;;
56746;SDS011;42623;49.978;9.966;2024-03-17T00:41:40;7.53;;;3.93;;
56746;SDS011;42623;49.978;9.966;2024-03-17T00:41:50;7.20;;;3.77;;
56746;SDS011;42623;49.978;9.966;2024-03-17T00:42:00;6.90;;;3.43;;
56746;SDS011;42623;49.978;9.966;2024-03-17T00:42:11;7.50;;;3.55;;
56746;SDS011;42623;49.978;9.966;2024-03-17T00:42:21;7.75;;;3.67;;
56746;SDS011;42623;49.978;9.966;2024-03-17T00:42:32;8.10;;;4.03;;
56746;SDS011;42623;49.978;9.966;2024-03-17T00:42:42;6.50;;;3.42;;
56746;SDS011;42623;49.978;9.966;2024-03-17T00:42:52;6.47;;;3.50;;
56746;SDS011;42623;49.978;9.966;2024-03-17T00:43:04;6.47;;;2.95;;
56746;SDS011;42623;49.978;9.966;2024-03-17T00:43:14;7.22;;;3.25;;
56746;SDS011;42623;49.978;9.966;2024-03-17T00:43:24;8.03;;;3.57;;
56746;SDS011;42623;49.978;9.966;2024-03-17T00:43:34;7.90;;;3.67;;
56746;SDS011;42623;49.978;9.966;2024-03-17T00:43:45;6.97;;;3.10;;
56746;SDS011;42623;49.978;9.966;2024-03-17T00:43:55;5.82;;;3.00;;
56746;SDS011;42623;49.978;9.966;2024-03-17T00:44:05;5.57;;;3.10;;
56746;SDS011;42623;49.978;9.966;2024-03-17T00:44:16;5.63;;;3.05;;
56746;SDS011;42623;49.978;9.966;2024-03-17T00:44:26;6.00;;;3.03;;
56746;SDS011;42623;49.978;9.966;2024-03-17T00:44:37;5.70;;;2.85;;
56746;SDS011;42623;49.978;9.966;2024-03-17T00:44:47;6.17;;;3.00;;
56746;SDS011;42623;49.978;9.966;2024-03-17T00:44:57;5.97;;;2.93;;
56746;SDS011;42623;49.978;9.966;2024-03-17T00:45:10;7.00;;;3.45;;
56746;SDS011;42623;49.978;9.966;2024-03-17T00:45:21;6.97;;;3.55;;
56746;SDS011;42623;49.978;9.966;2024-03-17T00:45:31;7.07;;;3.70;;
56746;SDS011;42623;49.978;9.966;2024-03-17T00:45:41;7.35;;;3.45;;
56746;SDS011;42623;49.978;9.966;2024-03-17T00:45:51;7.37;;;3.40;;
56746;SDS011;42623;49.978;9.966;2024-03-17T00:46:02;7.33;;;3.37;;
56746;SDS011;42623;49.978;9.966;2024-03-17T00:46:12;6.30;;;3.15;;
56746;SDS011;42623;49.978;9.966;2024-03-17T00:46:22;7.17;;;3.33;;
56746;SDS011;42623;49.978;9.966;2024-03-17T00:46:32;9.10;;;3.60;;
56746;SDS011;42623;49.978;9.966;2024-03-17T00:46:43;9.20;;;3.80;;
56746;SDS011;42623;49.978;9.966;2024-03-17T00:46:53;7.90;;;3.73;;
56746;SDS011;42623;49.978;9.966;2024-03-17T00:47:04;5.97;;;3.30;;
56746;SDS011;42623;49.978;9.966;2024-03-17T00:47:14;5.97;;;3.47;;
56746;SDS011;42623;49.978;9.966;2024-03-17T00:47:24;6.27;;;3.17;;
56746;SDS011;42623;49.978;9.966;2024-03-17T00:47:34;6.80;;;3.20;;
56746;SDS011;42623;49.978;9.966;2024-03-17T00:47:44;6.87;;;3.17;;
56746;SDS011;42623;49.978;9.966;2024-03-17T00:47:55;6.67;;;3.43;;
56746;SDS011;42623;49.978;9.966;2024-03-17T00:48:05;7.33;;;3.53;;
56746;SDS011;42623;49.978;9.966;2024-03-17T00:48:16;8.80;;;3.55;;
56746;SDS011;42623;49.978;9.966;2024-03-17T00:48:26;8.47;;;3.27;;
56746;SDS011;42623;49.978;9.966;2024-03-17T00:48:36;6.67;;;3.20;;
56746;SDS011;42623;49.978;9.966;2024-03-17T00:48:50;6.27;;;3.03;;
56746;SDS011;42623;49.978;9.966;2024-03-17T00:49:00;6.80;;;3.22;;
56746;SDS011;42623;49.978;9.966;2024-03-17T00:49:10;7.07;;;3.25;;
56746;SDS011;42623;49.978;9.966;2024-03-17T00:49:20;7.07;;;3.10;;
56746;SDS011;42623;49.978;9.966;2024-03-17T00:49:30;7.23;;;3.40;;
56746;SDS011;42623;49.978;9.966;2024-03-17T00:49:41;6.53;;;3.17;;
56746;SDS011;42623;49.978;9.966;2024-03-17T00:49:51;6.20;;;3.00;;
56746;SDS011;42623;49.978;9.966;2024-03-17T00:50:01;5.73;;;2.70;;
56746;SDS011;42623;49.978;9.966;2024-03-17T00:50:11;6.13;;;2.80;;
56746;SDS011;42623;49.978;9.966;2024-03-17T00:50:22;6.85;;;3.38;;
56746;SDS011;42623;49.978;9.966;2024-03-17T00:50:32;8.53;;;3.40;;
56746;SDS011;42623;49.978;9.966;2024-03-17T00:50:42;8.77;;;3.37;;
56746;SDS011;42623;49.978;9.966;2024-03-17T00:50:57;7.78;;;3.17;;
56746;SDS011;42623;49.978;9.966;2024-03-17T00:51:08;8.35;;;3.50;;
56746;SDS011;42623;49.978;9.966;2024-03-17T00:51:18;8.03;;;3.57;;
56746;SDS011;42623;49.978;9.966;2024-03-17T00:51:28;7.85;;;3.38;;
56746;SDS011;42623;49.978;9.966;2024-03-17T00:51:38;6.87;;;3.10;;
56746;SDS011;42623;49.978;9.966;2024-03-17T00:51:48;6.87;;;3.00;;
56746;SDS011;42623;49.978;9.966;2024-03-17T00:52:00;7.22;;;3.40;;
56746;SDS011;42623;49.978;9.966;2024-03-17T00:52:10;7.60;;;3.57;;
56746;SDS011;42623;49.978;9.966;2024-03-17T00:52:20;7.03;;;3.70;;
56746;SDS011;42623;49.978;9.966;2024-03-17T00:52:30;6.17;;;3.13;;
56746;SDS011;42623;49.978;9.966;2024-03-17T00:52:40;6.33;;;3.10;;
56746;SDS011;42623;49.978;9.966;2024-03-17T00:52:50;6.70;;;3.07;;
56746;SDS011;42623;49.978;9.966;2024-03-17T00:53:00;7.43;;;3.47;;
56746;SDS011;42623;49.978;9.966;2024-03-17T00:53:13;8.20;;;3.58;;
56746;SDS011;42623;49.978;9.966;2024-03-17T00:53:24;8.38;;;3.42;;
56746;SDS011;42623;49.978;9.966;2024-03-17T00:53:34;8.40;;;3.47;;
56746;SDS011;42623;49.978;9.966;2024-03-17T00:53:44;7.50;;;3.53;;
56746;SDS011;42623;49.978;9.966;2024-03-17T00:53:55;7.87;;;4.00;;
56746;SDS011;42623;49.978;9.966;2024-03-17T00:54:06;7.63;;;3.70;;
56746;SDS011;42623;49.978;9.966;2024-03-17T00:54:16;7.00;;;3.73;;
56746;SDS011;42623;49.978;9.966;2024-03-17T00:54:28;6.45;;;3.30;;
56746;SDS011;42623;49.978;9.966;2024-03-17T00:54:38;8.35;;;3.80;;
56746;SDS011;42623;49.978;9.966;2024-03-17T00:54:48;8.90;;;3.83;;
56746;SDS011;42623;49.978;9.966;2024-03-17T00:54:59;8.30;;;3.70;;
56746;SDS011;42623;49.978;9.966;2024-03-17T00:55:09;6.97;;;3.30;;
56746;SDS011;42623;49.978;9.966;2024-03-17T00:55:20;6.97;;;3.47;;
56746;SDS011;42623;49.978;9.966;2024-03-17T00:55:30;7.23;;;3.53;;
56746;SDS011;42623;49.978;9.966;2024-03-17T00:55:40;7.73;;;3.93;;
56746;SDS011;42623;49.978;9.966;2024-03-17T00:55:54;7.33;;;3.70;;
56746;SDS011;42623;49.978;9.966;2024-03-17T00:56:05;6.85;;;3.58;;
56746;SDS011;42623;49.978;9.966;2024-03-17T00:56:16;6.15;;;3.17;;
56746;SDS011;42623;49.978;9.966;2024-03-17T00:56:26;7.07;;;3.70;;
56746;SDS011;42623;49.978;9.966;2024-03-17T00:56:37;6.93;;;3.42;;
56746;SDS011;42623;49.978;9.966;2024-03-17T00:56:47;6.90;;;3.30;;
56746;SDS011;42623;49.978;9.966;2024-03-17T00:56:58;6.00;;;2.70;;
56746;SDS011;42623;49.978;9.966;2024-03-17T00:57:08;6.27;;;3.00;;
56746;SDS011;42623;49.978;9.966;2024-03-17T00:57:18;6.67;;;2.93;;
56746;SDS011;42623;49.978;9.966;2024-03-17T00:57:28;8.00;;;3.45;;
56746;SDS011;42623;49.978;9.966;2024-03-17T00:57:39;9.00;;;3.70;;
56746;SDS011;42623;49.978;9.966;2024-03-17T00:57:49;7.73;;;3.40;;
56746;SDS011;42623;49.978;9.966;2024-03-17T00:57:59;8.43;;;3.33;;
56746;SDS011;42623;49.978;9.966;2024-03-17T00:58:09;7.50;;;3.10;;
56746;SDS011;42623;49.978;9.966;2024-03-17T00:58:20;7.63;;;3.30;;
56746;SDS011;42623;49.978;9.966;2024-03-17T00:58:31;6.93;;;3.20;;
56746;SDS011;42623;49.978;9.966;2024-03-17T00:58:41;7.55;;;3.53;;
56746;SDS011;42623;49.978;9.966;2024-03-17T00:58:51;7.73;;;3.60;;
56746;SDS011;42623;49.978;9.966;2024-03-17T00:59:02;7.50;;;3.67;;
56746;SDS011;42623;49.978;9.966;2024-03-17T00:59:12;6.30;;;3.20;;
56746;SDS011;42623;49.978;9.966;2024-03-17T00:59:23;6.18;;;2.92;;
56746;SDS011;42623;49.978;9.966;2024-03-17T00:59:33;6.13;;;2.90;;
56746;SDS011;42623;49.978;9.966;2024-03-17T00:59:43;6.10;;;2.80;;
56746;SDS011;42623;49.978;9.966;2024-03-17T00:59:56;5.97;;;3.28;;
56746;SDS011;42623;49.978;9.966;2024-03-17T01:00:06;6.03;;;3.30;;
56746;SDS011;42623;49.978;9.966;2024-03-17T01:00:17;6.73;;;3.90;;
56746;SDS011;42623;49.978;9.966;2024-03-17T01:00:27;7.20;;;4.25;;
56746;SDS011;42623;49.978;9.966;2024-03-17T01:00:38;6.87;;;4.23;;
56746;SDS011;42623;49.978;9.966;2024-03-17T01:00:48;6.50;;;3.60;;
56746;SDS011;42623;49.978;9.966;2024-03-17T01:00:58;6.15;;;2.80;;
56746;SDS011;42623;49.978;9.966;2024-03-17T01:01:08;6.67;;;2.77;;
56746;SDS011;42623;49.978;9.966;2024-03-17T01:01:18;7.30;;;3.30;;
56746;SDS011;42623;49.978;9.966;2024-03-17T01:01:29;7.28;;;3.75;;
56746;SDS011;42623;49.978;9.966;2024-03-17T01:01:39;6.10;;;3.57;;
56746;SDS011;42623;49.978;9.966;2024-03-17T01:01:49;6.53;;;3.53;;
56746;SDS011;42623;49.978;9.966;2024-03-17T01:01:59;6.93;;;3.50;;
56746;SDS011;42623;49.978;9.966;2024-03-17T01:02:14;7.28;;;3.47;;
56746;SDS011;42623;49.978;9.966;2024-03-17T01:02:24;6.93;;;2.92;;
56746;SDS011;42623;49.978;9.966;2024-03-17T01:02:35;7.25;;;3.08;;
56746;SDS011;42623;49.978;9.966;2024-03-17T01:02:45;7.40;;;3.30;;
56746;SDS011;42623;49.978;9.966;2024-03-17T01:02:56;7.93;;;4.43;;
56746;SDS011;42623;49.978;9.966;2024-03-17T01:03:06;8.10;;;4.90;;
56746;SDS011;42623;49.978;9.966;2024-03-17T01:03:16;8.15;;;4.85;;
56746;SDS011;42623;49.978;9.966;2024-03-17T01:03:27;8.77;;;4.50;;
56746;SDS011;42623;49.978;9.966;2024-03-17T01:03:37;8.95;;;4.47;;